createdAt,value
2022-12-12T08:56:37.917Z,-2.19
2022-12-12T09:03:47.804Z,-2.18
2022-12-12T09:06:50.276Z,-2.13
2022-12-12T09:09:52.725Z,-2.01
2022-12-12T09:12:55.414Z,-1.74
2022-12-12T09:15:58.189Z,-1.72
2022-12-12T09:19:02.023Z,-1.62
2022-12-12T09:22:04.791Z,-1.68
2022-12-12T09:25:07.762Z,-1.55
2022-12-12T09:28:11.536Z,-1.44
2022-12-12T09:31:14.281Z,-1.26
2022-12-12T09:34:18.093Z,-1.24
2022-12-12T09:37:20.701Z,-1.29
2022-12-12T09:40:32.192Z,-1.18
2022-12-12T09:43:43.033Z,-0.93
2022-12-12T09:46:48.621Z,-0.86
2022-12-12T09:49:56.907Z,-0.75
2022-12-12T09:53:02.356Z,-0.89
2022-12-12T09:56:11.426Z,-0.90
2022-12-12T09:59:20.117Z,-0.89
2022-12-12T10:02:41.026Z,-0.98
2022-12-12T10:06:13.394Z,-1.06
2022-12-12T10:09:40.569Z,-0.98
2022-12-12T10:12:43.285Z,-0.37
2022-12-12T10:15:49.155Z,-0.43
2022-12-12T10:18:54.290Z,-0.39
2022-12-12T10:22:03.163Z,-0.59
2022-12-12T10:25:20.031Z,-0.67
2022-12-12T10:28:25.056Z,-0.54
2022-12-12T10:31:41.299Z,-0.36
2022-12-12T10:34:58.376Z,-0.59
2022-12-12T10:38:18.177Z,-0.45
2022-12-12T10:41:29.003Z,-0.74
2022-12-12T10:44:57.752Z,-1.09
2022-12-12T10:48:00.220Z,-0.78
2022-12-12T10:51:05.354Z,-1.04
2022-12-12T10:54:16.653Z,-0.81
2022-12-12T10:57:22.336Z,-0.78
2022-12-12T11:00:27.509Z,-0.81
2022-12-12T11:03:34.217Z,-0.74
2022-12-12T11:06:39.336Z,-0.82
2022-12-12T11:09:46.495Z,-1.00
2022-12-12T11:12:56.233Z,-1.02
2022-12-12T11:16:00.880Z,-1.01
2022-12-12T11:19:08.125Z,-0.96
2022-12-12T11:22:13.730Z,-1.22
2022-12-12T11:25:26.611Z,-1.24
2022-12-12T11:28:34.370Z,-1.16
2022-12-12T11:31:36.889Z,-1.34
2022-12-12T11:34:44.853Z,-1.19
2022-12-12T11:37:50.474Z,-1.13
2022-12-12T11:41:00.405Z,-1.06
2022-12-12T11:44:02.847Z,-1.25
2022-12-12T11:47:23.100Z,-1.35
2022-12-12T11:50:27.644Z,-1.63
2022-12-12T11:53:30.945Z,-1.81
2022-12-12T11:56:42.301Z,-1.89
2022-12-12T12:00:03.616Z,-1.95
2022-12-12T12:03:23.460Z,-2.02
2022-12-12T12:06:38.782Z,-2.05
2022-12-12T12:09:47.183Z,-2.02
2022-12-12T12:13:04.066Z,-2.05
2022-12-12T12:16:17.195Z,-1.94
2022-12-12T12:19:24.631Z,-1.82
2022-12-12T12:22:35.747Z,-1.83
2022-12-12T12:25:45.070Z,-1.82
2022-12-12T12:29:18.933Z,-1.72
2022-12-12T12:32:29.403Z,-1.69
2022-12-12T12:35:33.491Z,-1.54
2022-12-12T12:38:51.244Z,-1.59
2022-12-12T12:42:06.847Z,-1.67
2022-12-12T12:45:20.028Z,-1.65
2022-12-12T12:48:27.941Z,-1.78
2022-12-12T12:51:35.898Z,-1.76
2022-12-12T12:54:40.433Z,-1.74
2022-12-12T12:57:45.801Z,-1.71
2022-12-12T13:01:00.680Z,-1.66
2022-12-12T13:04:09.300Z,-1.82
2022-12-12T13:07:19.142Z,-1.86
2022-12-12T13:10:24.376Z,-1.83
2022-12-12T13:13:30.565Z,-1.89
2022-12-12T13:16:34.657Z,-1.90
2022-12-12T13:19:40.680Z,-1.90
2022-12-12T13:22:52.745Z,-1.87
2022-12-12T13:26:01.931Z,-1.88
2022-12-12T13:29:12.125Z,-1.67
2022-12-12T13:32:48.432Z,-1.69
2022-12-12T13:35:54.612Z,-1.83
2022-12-12T13:39:00.241Z,-1.80
2022-12-12T13:42:04.394Z,-1.87
2022-12-12T13:45:35.323Z,-1.76
2022-12-12T13:48:47.303Z,-1.97
2022-12-12T13:51:49.846Z,-2.02
2022-12-12T13:54:55.363Z,-2.05
2022-12-12T13:58:07.977Z,-1.93
2022-12-12T14:01:34.474Z,-1.92
2022-12-12T14:04:44.679Z,-1.98
2022-12-12T14:07:50.606Z,-2.21
2022-12-12T14:11:00.287Z,-2.11
2022-12-12T14:14:20.111Z,-2.02
2022-12-12T14:17:25.657Z,-2.18
2022-12-12T14:20:33.866Z,-2.19
2022-12-12T14:23:37.351Z,-2.16
2022-12-12T14:26:50.983Z,-2.07
2022-12-12T14:29:53.431Z,-2.10
2022-12-12T14:33:04.272Z,-2.06
2022-12-12T14:36:26.465Z,-2.01
2022-12-12T14:39:49.441Z,-1.97
2022-12-12T14:43:16.464Z,-1.89
2022-12-12T14:46:20.454Z,-1.92
2022-12-12T14:49:22.969Z,-1.85
2022-12-12T14:52:27.293Z,-1.73
2022-12-12T14:55:29.832Z,-1.76
2022-12-12T14:58:40.387Z,-1.77
2022-12-12T15:01:45.693Z,-1.77
2022-12-12T15:04:51.867Z,-1.75
2022-12-12T15:08:00.006Z,-1.80
2022-12-12T15:11:02.494Z,-1.85
2022-12-12T15:14:05.326Z,-1.98
2022-12-12T15:17:13.255Z,-1.94
2022-12-12T15:20:19.734Z,-1.94
2022-12-12T15:23:24.333Z,-2.06
2022-12-12T15:26:30.045Z,-2.02
2022-12-12T15:29:33.849Z,-2.10
2022-12-12T15:32:37.299Z,-2.03
2022-12-12T15:35:39.846Z,-2.01
2022-12-12T15:38:44.024Z,-1.97
2022-12-12T15:41:46.871Z,-2.07
2022-12-12T15:44:51.860Z,-2.11
2022-12-12T15:47:56.442Z,-1.92
2022-12-12T15:51:01.561Z,-1.89
2022-12-12T15:54:06.974Z,-1.95
2022-12-12T15:57:16.026Z,-1.97
2022-12-12T16:00:31.798Z,-1.97
2022-12-12T16:03:35.001Z,-2.06
2022-12-12T16:06:39.985Z,-2.04
2022-12-12T16:09:58.488Z,-2.08
2022-12-12T16:13:03.454Z,-2.11
2022-12-12T16:16:41.178Z,-2.11
2022-12-12T16:19:47.677Z,-2.21
2022-12-12T16:22:51.015Z,-2.24
2022-12-12T16:25:55.526Z,-2.29
2022-12-12T16:28:57.961Z,-2.32
2022-12-12T16:32:00.472Z,-2.35
2022-12-12T16:35:03.273Z,-2.39
2022-12-12T16:38:13.662Z,-2.39
2022-12-12T16:41:19.099Z,-2.39
2022-12-12T16:44:21.538Z,-2.47
2022-12-12T16:47:25.900Z,-2.51
2022-12-12T16:50:28.468Z,-2.55
2022-12-12T16:53:31.150Z,-2.69
2022-12-12T16:56:35.037Z,-2.72
2022-12-12T16:59:38.671Z,-2.79
2022-12-12T17:02:41.543Z,-2.84
2022-12-12T17:05:45.017Z,-3.04
2022-12-12T17:08:47.480Z,-3.15
2022-12-12T17:11:51.281Z,-3.09
2022-12-12T17:14:53.733Z,-3.24
2022-12-12T17:17:57.107Z,-3.36
2022-12-12T17:20:59.577Z,-3.52
2022-12-12T17:24:02.029Z,-3.58
2022-12-12T17:27:05.890Z,-3.44
2022-12-12T17:30:09.594Z,-3.42
2022-12-12T17:33:17.857Z,-3.65
2022-12-12T17:36:20.493Z,-3.80
2022-12-12T17:39:23.372Z,-3.81
2022-12-12T17:42:27.281Z,-3.84
2022-12-12T17:45:29.774Z,-3.89
2022-12-12T17:48:35.504Z,-3.74
2022-12-12T17:51:38.186Z,-3.38
2022-12-12T17:54:40.843Z,-3.15
2022-12-12T17:57:44.693Z,-3.00
2022-12-12T18:00:47.198Z,-2.92
2022-12-12T18:03:50.343Z,-2.79
2022-12-12T18:06:52.883Z,-2.73
2022-12-12T18:09:55.464Z,-2.68
2022-12-12T18:12:59.442Z,-2.62
2022-12-12T18:16:02.000Z,-2.66
2022-12-12T18:19:05.121Z,-2.65
2022-12-12T18:22:07.689Z,-2.58
2022-12-12T18:25:10.819Z,-2.56
2022-12-12T18:28:14.682Z,-2.49
